createdAt,value
2023-05-14T00:01:05.366Z,7.66
2023-05-14T00:03:33.982Z,7.60
2023-05-14T00:06:02.548Z,7.54
2023-05-14T00:08:30.882Z,7.48
2023-05-14T00:10:59.288Z,7.44
2023-05-14T00:13:27.575Z,7.37
2023-05-14T00:15:55.835Z,7.32
2023-05-14T00:18:24.168Z,7.28
2023-05-14T00:20:55.016Z,7.24
2023-05-14T00:23:23.943Z,7.19
2023-05-14T00:25:52.163Z,7.14
2023-05-14T00:28:21.153Z,7.07
2023-05-14T00:30:49.971Z,7.01
2023-05-14T00:33:18.113Z,6.96
2023-05-14T00:35:46.248Z,6.91
2023-05-14T00:38:17.747Z,6.86
2023-05-14T00:40:51.423Z,6.83
2023-05-14T00:43:21.296Z,6.78
2023-05-14T00:45:54.557Z,6.73
2023-05-14T00:48:23.597Z,6.67
2023-05-14T00:50:51.966Z,6.63
2023-05-14T00:53:21.389Z,6.58
2023-05-14T00:55:50.596Z,6.54
2023-05-14T00:58:19.862Z,6.49
2023-05-14T01:00:48.288Z,6.46
2023-05-14T01:03:16.777Z,6.42
2023-05-14T01:06:17.400Z,6.39
2023-05-14T01:09:25.547Z,6.34
2023-05-14T01:12:05.603Z,6.28
2023-05-14T01:14:41.726Z,6.24
2023-05-14T01:17:13.514Z,6.21
2023-05-14T01:19:45.724Z,6.17
2023-05-14T01:22:14.326Z,6.15
2023-05-14T01:24:42.537Z,6.13
2023-05-14T01:27:18.758Z,6.12
2023-05-14T01:29:59.311Z,6.11
2023-05-14T01:32:30.698Z,6.09
2023-05-14T01:35:01.564Z,6.09
2023-05-14T01:37:31.301Z,6.08
2023-05-14T01:40:00.534Z,6.06
2023-05-14T01:42:29.455Z,6.03
2023-05-14T01:44:58.213Z,6.02
2023-05-14T01:47:26.580Z,6.00
2023-05-14T01:49:55.068Z,5.98
2023-05-14T01:52:23.581Z,5.94
2023-05-14T01:54:51.992Z,5.92
2023-05-14T01:57:21.515Z,5.91
2023-05-14T01:59:49.838Z,5.88
2023-05-14T02:02:18.059Z,5.86
2023-05-14T02:04:46.724Z,5.84
2023-05-14T02:07:15.127Z,5.83
2023-05-14T02:09:43.380Z,5.84
2023-05-14T02:12:12.047Z,5.86
2023-05-14T02:14:40.373Z,5.88
2023-05-14T02:17:09.277Z,5.88
2023-05-14T02:19:37.537Z,5.86
2023-05-14T02:22:05.884Z,5.83
2023-05-14T02:24:35.550Z,5.78
2023-05-14T02:27:03.885Z,5.74
2023-05-14T02:29:32.326Z,5.69
2023-05-14T02:32:00.560Z,5.65
2023-05-14T02:34:28.772Z,5.62
2023-05-14T02:36:56.908Z,5.59
2023-05-14T02:39:25.095Z,5.56
2023-05-14T02:41:53.473Z,5.53
2023-05-14T02:44:22.153Z,5.51
2023-05-14T02:46:50.643Z,5.49
2023-05-14T02:49:18.912Z,5.49
2023-05-14T02:51:47.316Z,5.51
2023-05-14T02:54:16.933Z,5.52
2023-05-14T02:56:45.265Z,5.53
2023-05-14T02:59:13.458Z,5.53
2023-05-14T03:01:42.552Z,5.52
2023-05-14T03:04:11.386Z,5.52
2023-05-14T03:06:39.564Z,5.50
2023-05-14T03:09:07.897Z,5.49
2023-05-14T03:11:36.116Z,5.50
2023-05-14T03:14:04.555Z,5.51
2023-05-14T03:16:32.983Z,5.51
2023-05-14T03:19:01.437Z,5.53
2023-05-14T03:21:29.820Z,5.54
2023-05-14T03:23:58.063Z,5.55
2023-05-14T03:26:26.335Z,5.54
2023-05-14T03:28:55.105Z,5.55
2023-05-14T03:31:23.295Z,5.57
2023-05-14T03:33:51.573Z,5.61
2023-05-14T03:36:19.658Z,5.64
2023-05-14T03:38:49.042Z,5.67
2023-05-14T03:41:20.071Z,5.70
2023-05-14T03:43:48.330Z,5.73
2023-05-14T03:46:16.768Z,5.76
2023-05-14T03:48:45.054Z,5.80
2023-05-14T03:51:13.666Z,5.83
2023-05-14T03:53:42.002Z,5.85
2023-05-14T03:56:10.415Z,5.87
2023-05-14T03:58:38.890Z,5.88
2023-05-14T04:01:07.147Z,5.91
2023-05-14T04:03:35.809Z,5.93
2023-05-14T04:06:04.585Z,5.95
2023-05-14T04:08:32.670Z,5.97
2023-05-14T04:11:01.523Z,5.99
2023-05-14T04:13:29.696Z,6.01
2023-05-14T04:15:57.865Z,6.03
2023-05-14T04:18:26.042Z,6.06
2023-05-14T04:20:54.532Z,6.11
2023-05-14T04:23:22.695Z,6.16
2023-05-14T04:25:51.438Z,6.22
2023-05-14T04:28:19.624Z,6.29
2023-05-14T04:30:48.965Z,6.41
2023-05-14T04:33:17.155Z,6.64
2023-05-14T04:35:46.144Z,6.92
2023-05-14T04:38:14.610Z,7.21
2023-05-14T04:40:42.942Z,7.50
2023-05-14T04:43:10.991Z,7.79
2023-05-14T04:45:41.141Z,8.05
2023-05-14T04:48:09.543Z,8.31
2023-05-14T04:50:37.754Z,8.57
2023-05-14T04:53:05.869Z,8.84
2023-05-14T04:55:34.059Z,9.08
2023-05-14T04:58:02.342Z,9.30
2023-05-14T05:00:30.824Z,9.52
2023-05-14T05:02:59.194Z,9.72
2023-05-14T05:05:27.422Z,9.92
2023-05-14T05:07:55.783Z,10.13
2023-05-14T05:10:24.479Z,10.36
2023-05-14T05:12:53.018Z,10.59
2023-05-14T05:15:21.248Z,10.79
2023-05-14T05:17:49.510Z,10.97
2023-05-14T05:20:17.870Z,11.16
2023-05-14T05:22:46.119Z,11.30
2023-05-14T05:25:14.468Z,11.44
2023-05-14T05:27:42.875Z,11.54
2023-05-14T05:30:11.638Z,11.65
2023-05-14T05:32:39.920Z,11.76
2023-05-14T05:35:08.527Z,11.86
2023-05-14T05:37:36.864Z,11.96
2023-05-14T05:40:06.517Z,12.08
2023-05-14T05:42:34.827Z,12.20
2023-05-14T05:45:03.039Z,12.31
2023-05-14T05:47:31.405Z,12.43
2023-05-14T05:50:00.068Z,12.56
2023-05-14T05:52:28.352Z,12.72
2023-05-14T05:54:56.692Z,12.91
2023-05-14T05:57:27.234Z,13.09
2023-05-14T06:00:23.220Z,13.25
2023-05-14T06:02:56.529Z,13.48
2023-05-14T06:05:25.111Z,13.68
2023-05-14T06:07:53.921Z,13.82
2023-05-14T06:10:22.507Z,14.00
2023-05-14T06:12:51.014Z,14.17
2023-05-14T06:15:19.340Z,14.24
2023-05-14T06:17:47.697Z,14.29
2023-05-14T06:20:15.829Z,14.37
2023-05-14T06:22:44.119Z,14.43
2023-05-14T06:25:12.340Z,14.48
2023-05-14T06:27:40.705Z,14.54
2023-05-14T06:30:09.342Z,14.62
2023-05-14T06:32:37.734Z,14.72
2023-05-14T06:35:06.679Z,14.83
2023-05-14T06:37:34.917Z,14.90
2023-05-14T06:40:03.718Z,15.00
2023-05-14T06:42:31.884Z,15.06
2023-05-14T06:45:00.188Z,15.15
2023-05-14T06:47:28.309Z,15.26
2023-05-14T06:49:58.876Z,15.34
2023-05-14T06:52:27.148Z,15.49
2023-05-14T06:54:55.277Z,15.57
2023-05-14T06:57:23.357Z,15.62
2023-05-14T06:59:51.656Z,15.62
2023-05-14T07:02:20.055Z,15.56
2023-05-14T07:04:48.559Z,15.56
2023-05-14T07:07:20.700Z,15.55
2023-05-14T07:09:48.921Z,15.59
2023-05-14T07:12:17.421Z,15.73
2023-05-14T07:14:46.871Z,15.90
2023-05-14T07:17:15.430Z,16.02
2023-05-14T07:19:43.636Z,16.09
2023-05-14T07:22:11.714Z,16.20
2023-05-14T07:24:39.938Z,16.34
2023-05-14T07:27:08.720Z,16.52
2023-05-14T07:29:37.060Z,16.67
2023-05-14T07:32:05.288Z,16.80
2023-05-14T07:34:33.752Z,16.96
2023-05-14T07:37:02.509Z,17.13
2023-05-14T07:39:31.133Z,17.25
2023-05-14T07:42:01.119Z,17.31
2023-05-14T07:44:29.296Z,17.35
2023-05-14T07:46:57.607Z,17.33
2023-05-14T07:49:25.954Z,17.36
2023-05-14T07:51:54.960Z,17.45
2023-05-14T07:54:23.126Z,17.48
2023-05-14T07:56:51.343Z,17.44
2023-05-14T07:59:19.644Z,17.36
2023-05-14T08:01:47.946Z,17.31
2023-05-14T08:04:16.528Z,17.18
2023-05-14T08:06:44.851Z,17.14
2023-05-14T08:09:14.236Z,17.22
2023-05-14T08:11:42.723Z,17.25
2023-05-14T08:14:11.312Z,17.23
2023-05-14T08:16:39.800Z,17.24
2023-05-14T08:19:08.091Z,17.25
2023-05-14T08:21:36.358Z,17.26
2023-05-14T08:24:04.839Z,17.28
2023-05-14T08:26:33.576Z,17.37
2023-05-14T08:29:01.804Z,17.59
2023-05-14T08:31:30.145Z,17.83
2023-05-14T08:33:58.594Z,18.08
2023-05-14T08:36:27.018Z,18.28
2023-05-14T08:38:55.400Z,18.42
2023-05-14T08:41:23.656Z,18.61
2023-05-14T08:44:09.538Z,18.84
2023-05-14T08:46:39.181Z,19.06
2023-05-14T08:49:40.973Z,19.19
2023-05-14T08:52:10.185Z,19.31
2023-05-14T08:54:39.273Z,19.31
2023-05-14T08:57:10.718Z,19.21
2023-05-14T08:59:38.870Z,19.21
2023-05-14T09:02:10.238Z,19.25
2023-05-14T09:04:39.994Z,19.32
2023-05-14T09:07:08.497Z,19.38
2023-05-14T09:09:37.770Z,19.36
2023-05-14T09:12:07.605Z,19.35
2023-05-14T09:14:35.833Z,19.36
2023-05-14T09:17:04.777Z,19.30
2023-05-14T09:19:33.224Z,19.30
2023-05-14T09:22:01.419Z,19.36
2023-05-14T09:24:29.668Z,19.42
2023-05-14T09:26:59.154Z,19.49
2023-05-14T09:29:29.382Z,19.67
2023-05-14T09:32:00.427Z,19.82
2023-05-14T09:34:31.167Z,19.98
2023-05-14T09:37:05.132Z,20.09
2023-05-14T09:39:36.499Z,20.19
2023-05-14T09:42:05.291Z,20.34
2023-05-14T09:44:33.610Z,20.51
2023-05-14T09:47:01.936Z,20.55
2023-05-14T09:49:30.271Z,20.59
2023-05-14T09:51:58.963Z,20.72
2023-05-14T09:54:27.722Z,20.83
2023-05-14T09:56:56.051Z,20.90
2023-05-14T09:59:24.269Z,21.05
2023-05-14T10:01:52.989Z,21.09
2023-05-14T10:04:23.352Z,21.09
2023-05-14T10:06:53.439Z,21.06
2023-05-14T10:09:26.354Z,21.13
2023-05-14T10:12:01.384Z,21.24
2023-05-14T10:14:41.251Z,21.42
2023-05-14T10:17:18.417Z,21.47
2023-05-14T10:19:54.859Z,21.56
2023-05-14T10:22:24.558Z,21.58
2023-05-14T10:24:54.165Z,21.61
2023-05-14T10:27:23.934Z,21.66
2023-05-14T10:29:56.147Z,21.49
2023-05-14T10:32:26.556Z,21.36
2023-05-14T10:34:54.840Z,21.10
2023-05-14T10:37:25.652Z,20.88
2023-05-14T10:40:01.856Z,20.77
2023-05-14T10:42:36.114Z,20.69
2023-05-14T10:45:07.736Z,20.62
2023-05-14T10:47:38.274Z,20.61
2023-05-14T10:50:10.347Z,20.57
2023-05-14T10:52:40.955Z,20.57
2023-05-14T10:55:14.868Z,20.53
2023-05-14T10:57:44.937Z,20.44
2023-05-14T11:00:14.984Z,20.35
2023-05-14T11:02:45.158Z,20.32
2023-05-14T11:05:17.432Z,20.30
2023-05-14T11:07:48.837Z,20.20
2023-05-14T11:10:18.975Z,20.06
2023-05-14T11:12:49.573Z,19.98
2023-05-14T11:15:26.318Z,19.85
2023-05-14T11:17:54.716Z,19.83
2023-05-14T11:20:23.228Z,19.82
2023-05-14T11:22:53.684Z,19.82
2023-05-14T11:25:22.991Z,19.85
2023-05-14T11:27:51.593Z,19.84
2023-05-14T11:30:20.690Z,19.80
2023-05-14T11:32:50.428Z,19.80
2023-05-14T11:35:18.751Z,19.77
2023-05-14T11:37:54.411Z,19.69
2023-05-14T11:40:22.811Z,19.59
2023-05-14T11:42:53.449Z,19.47
2023-05-14T11:45:27.065Z,19.38
2023-05-14T11:47:56.087Z,19.26
2023-05-14T11:50:24.824Z,19.19
2023-05-14T11:52:57.281Z,19.13
2023-05-14T11:55:25.419Z,19.10
2023-05-14T11:57:54.439Z,19.03
2023-05-14T12:00:24.871Z,18.99
2023-05-14T12:02:54.569Z,18.93
2023-05-14T12:05:22.750Z,18.87
2023-05-14T12:07:51.157Z,18.78
2023-05-14T12:10:19.405Z,18.69
2023-05-14T12:12:49.282Z,18.62
2023-05-14T12:15:17.528Z,18.57
2023-05-14T12:17:52.284Z,18.50
2023-05-14T12:20:20.729Z,18.46
2023-05-14T12:22:49.007Z,18.44
2023-05-14T12:25:17.357Z,18.42
2023-05-14T12:27:45.905Z,18.42
2023-05-14T12:32:46.811Z,18.33
2023-05-14T12:35:15.019Z,18.28
2023-05-14T12:37:43.298Z,18.26
2023-05-14T12:40:13.775Z,18.22
2023-05-14T12:42:42.520Z,18.19
2023-05-14T12:45:11.508Z,18.17
2023-05-14T12:47:39.775Z,18.15
2023-05-14T12:50:08.374Z,18.12
2023-05-14T12:52:39.254Z,18.08
2023-05-14T12:55:09.367Z,18.06
2023-05-14T12:57:39.359Z,18.01
2023-05-14T13:00:14.123Z,17.98
2023-05-14T13:02:43.925Z,17.93
2023-05-14T13:05:13.040Z,17.91
2023-05-14T13:07:41.501Z,17.84
2023-05-14T13:10:10.443Z,17.77
2023-05-14T13:12:38.913Z,17.65
2023-05-14T13:15:07.882Z,17.54
2023-05-14T13:17:36.652Z,17.45
2023-05-14T13:20:05.360Z,17.35
2023-05-14T13:22:33.752Z,17.26
2023-05-14T13:25:01.941Z,17.14
2023-05-14T13:27:30.673Z,17.01
2023-05-14T13:29:58.743Z,16.89
2023-05-14T13:32:27.214Z,16.79
2023-05-14T13:34:58.545Z,16.68
2023-05-14T13:37:35.352Z,16.50
2023-05-14T13:40:04.976Z,16.39
2023-05-14T13:42:33.325Z,16.27
2023-05-14T13:45:01.609Z,16.20
2023-05-14T13:47:29.905Z,16.14
2023-05-14T13:49:58.284Z,16.11
2023-05-14T13:52:26.641Z,16.07
2023-05-14T13:54:54.878Z,16.07
2023-05-14T13:57:23.145Z,16.07
2023-05-14T13:59:51.382Z,16.09
2023-05-14T14:02:19.554Z,16.14
2023-05-14T14:04:49.639Z,16.20
2023-05-14T14:07:17.841Z,16.28
2023-05-14T14:09:45.939Z,16.35
2023-05-14T14:12:14.164Z,16.45
2023-05-14T14:14:42.304Z,16.55
2023-05-14T14:17:10.580Z,16.64
2023-05-14T14:19:39.019Z,16.72
2023-05-14T14:22:07.094Z,16.82
2023-05-14T14:24:35.211Z,16.93
2023-05-14T14:27:03.544Z,17.01
2023-05-14T14:29:31.703Z,17.09
2023-05-14T14:32:00.366Z,17.15
2023-05-14T14:34:28.796Z,17.17
2023-05-14T14:36:56.951Z,17.16
2023-05-14T14:39:25.516Z,17.16
2023-05-14T14:41:53.680Z,17.16
2023-05-14T14:44:22.270Z,17.18
2023-05-14T14:46:50.778Z,17.19
2023-05-14T14:49:18.999Z,17.19
2023-05-14T14:51:47.275Z,17.17
2023-05-14T14:54:15.681Z,17.15
2023-05-14T14:56:45.970Z,17.13
2023-05-14T14:59:14.354Z,17.07
2023-05-14T15:01:43.642Z,17.04
2023-05-14T15:04:12.043Z,17.01
2023-05-14T15:06:40.255Z,17.00
2023-05-14T15:09:09.323Z,16.97
2023-05-14T15:11:37.831Z,16.95
2023-05-14T15:14:06.306Z,16.94
2023-05-14T15:16:34.531Z,16.93
2023-05-14T15:19:02.762Z,16.91
2023-05-14T15:21:32.090Z,16.89
2023-05-14T15:24:00.948Z,16.88
2023-05-14T15:26:28.998Z,16.87
2023-05-14T15:28:58.824Z,16.86
2023-05-14T15:31:27.037Z,16.85
2023-05-14T15:33:56.160Z,16.83
2023-05-14T15:36:24.379Z,16.78
2023-05-14T15:38:52.470Z,16.73
2023-05-14T15:41:21.239Z,16.69
2023-05-14T15:43:50.154Z,16.66
2023-05-14T15:46:18.266Z,16.64
2023-05-14T15:48:46.465Z,16.65
2023-05-14T15:51:15.081Z,16.67
2023-05-14T15:53:43.295Z,16.69
2023-05-14T15:56:11.611Z,16.69
2023-05-14T15:58:39.933Z,16.69
2023-05-14T16:01:08.169Z,16.68
2023-05-14T16:03:36.496Z,16.66
2023-05-14T16:06:04.965Z,16.66
2023-05-14T16:08:33.118Z,16.66
2023-05-14T16:11:01.315Z,16.66
2023-05-14T16:13:29.624Z,16.67
2023-05-14T16:15:59.683Z,16.68
2023-05-14T16:18:28.404Z,16.67
2023-05-14T16:20:57.033Z,16.67
2023-05-14T16:23:25.545Z,16.66
2023-05-14T16:25:53.843Z,16.64
2023-05-14T16:28:22.012Z,16.62
2023-05-14T16:30:50.129Z,16.60
2023-05-14T16:33:18.229Z,16.57
2023-05-14T16:35:46.509Z,16.55
2023-05-14T16:38:14.647Z,16.53
2023-05-14T16:40:42.928Z,16.51
2023-05-14T16:43:11.295Z,16.50
2023-05-14T16:45:40.539Z,16.47
2023-05-14T16:48:08.916Z,16.44
2023-05-14T16:50:37.241Z,16.40
2023-05-14T16:53:05.430Z,16.37
2023-05-14T16:55:33.700Z,16.36
2023-05-14T16:58:01.937Z,16.33
2023-05-14T17:00:30.152Z,16.30
2023-05-14T17:02:58.655Z,16.27
2023-05-14T17:05:27.012Z,16.26
2023-05-14T17:07:55.427Z,16.25
2023-05-14T17:10:25.388Z,16.24
2023-05-14T17:12:53.955Z,16.23
2023-05-14T17:15:41.937Z,16.24
2023-05-14T17:18:12.083Z,16.24
2023-05-14T17:20:40.360Z,16.25
2023-05-14T17:23:08.690Z,16.26
2023-05-14T17:25:37.079Z,16.27
2023-05-14T17:28:05.639Z,16.28
2023-05-14T17:30:33.923Z,16.28
2023-05-14T17:33:02.293Z,16.28
2023-05-14T17:35:30.617Z,16.27
2023-05-14T17:38:00.475Z,16.24
2023-05-14T17:40:29.183Z,16.21
2023-05-14T17:42:57.338Z,16.18
2023-05-14T17:45:26.947Z,16.13
2023-05-14T17:47:55.388Z,16.10
2023-05-14T17:50:23.579Z,16.05
2023-05-14T17:52:51.691Z,16.01
2023-05-14T17:55:20.139Z,15.96
2023-05-14T17:57:48.658Z,15.93
2023-05-14T18:00:17.971Z,15.88
2023-05-14T18:02:46.352Z,15.84
2023-05-14T18:05:14.924Z,15.79
2023-05-14T18:07:43.929Z,15.74
2023-05-14T18:10:12.017Z,15.69
2023-05-14T18:12:40.416Z,15.64
2023-05-14T18:15:08.884Z,15.59
2023-05-14T18:17:37.117Z,15.53
2023-05-14T18:20:06.820Z,15.47
2023-05-14T18:22:35.124Z,15.41
2023-05-14T18:25:03.832Z,15.35
2023-05-14T18:27:31.871Z,15.30
2023-05-14T18:30:00.764Z,15.25
2023-05-14T18:32:30.343Z,15.20
2023-05-14T18:34:59.037Z,15.17
2023-05-14T18:37:27.300Z,15.11
2023-05-14T18:39:55.660Z,15.06
2023-05-14T18:42:24.049Z,15.03
2023-05-14T18:44:52.244Z,14.99
2023-05-14T18:47:23.343Z,14.97
2023-05-14T18:49:55.335Z,14.97
2023-05-14T19:01:20.317Z,15.18
2023-05-14T19:02:36.457Z,15.09
2023-05-14T19:04:10.343Z,15.26
2023-05-14T19:07:19.935Z,15.30
2023-05-14T19:09:58.885Z,15.34
2023-05-14T19:12:27.776Z,15.37
2023-05-14T19:14:56.813Z,15.39
2023-05-14T19:17:25.693Z,15.41
2023-05-14T19:19:56.642Z,15.42
2023-05-14T19:22:27.633Z,15.41
2023-05-14T19:24:55.721Z,15.42
2023-05-14T19:27:24.426Z,15.42
2023-05-14T19:29:56.366Z,15.41
2023-05-14T19:32:27.199Z,15.41
2023-05-14T19:38:38.533Z,15.37
2023-05-14T19:41:27.921Z,15.35
2023-05-14T19:43:56.390Z,15.33
2023-05-14T19:46:24.902Z,15.31
2023-05-14T19:48:53.397Z,15.28
2023-05-14T19:51:22.101Z,15.24
2023-05-14T19:53:50.649Z,15.18
2023-05-14T19:56:18.904Z,15.16
2023-05-14T19:58:55.196Z,15.13
2023-05-14T20:01:50.035Z,15.08
2023-05-14T20:04:20.007Z,15.05
2023-05-14T20:06:49.546Z,15.01
2023-05-14T20:09:18.383Z,14.95
2023-05-14T20:11:48.914Z,14.87
2023-05-14T20:14:18.679Z,14.81
2023-05-14T20:16:50.026Z,14.75
2023-05-14T20:19:20.344Z,14.70
2023-05-14T20:21:48.609Z,14.65
2023-05-14T20:24:16.783Z,14.61
2023-05-14T20:26:44.844Z,14.57
2023-05-14T20:29:14.529Z,14.53
2023-05-14T20:31:42.636Z,14.49
2023-05-14T20:34:10.828Z,14.45
2023-05-14T20:36:39.016Z,14.42
2023-05-14T20:39:08.930Z,14.38
2023-05-14T20:41:37.175Z,14.33
2023-05-14T20:44:05.800Z,14.29
2023-05-14T20:46:33.929Z,14.25
2023-05-14T20:49:02.414Z,14.23
2023-05-14T20:51:31.400Z,14.21
2023-05-14T20:53:59.596Z,14.19
2023-05-14T20:56:27.701Z,14.17
2023-05-14T20:58:56.082Z,14.15
2023-05-14T21:01:24.356Z,14.13
2023-05-14T21:03:52.634Z,14.12
2023-05-14T21:06:21.308Z,14.09
2023-05-14T21:08:49.486Z,14.08
2023-05-14T21:11:17.833Z,14.06
2023-05-14T21:13:46.009Z,14.04
2023-05-14T21:16:14.144Z,14.01
2023-05-14T21:18:42.381Z,14.00
2023-05-14T21:21:10.557Z,13.98
2023-05-14T21:23:38.768Z,13.97
2023-05-14T21:26:07.061Z,13.96
2023-05-14T21:28:35.299Z,13.94
2023-05-14T21:31:03.400Z,13.92
2023-05-14T21:33:31.694Z,13.90
2023-05-14T21:35:59.952Z,13.88
2023-05-14T21:38:28.202Z,13.86
2023-05-14T21:40:56.368Z,13.83
2023-05-14T21:43:24.450Z,13.82
2023-05-14T21:45:52.714Z,13.82
2023-05-14T21:48:22.104Z,13.80
2023-05-14T21:50:50.543Z,13.80
2023-05-14T21:53:18.738Z,13.79
2023-05-14T21:55:46.920Z,13.80
2023-05-14T21:58:15.413Z,13.80
2023-05-14T22:00:43.590Z,13.80
2023-05-14T22:03:11.962Z,13.81
2023-05-14T22:05:40.115Z,13.81
2023-05-14T22:08:08.276Z,13.81
2023-05-14T22:10:36.650Z,13.80
2023-05-14T22:13:05.032Z,13.79
2023-05-14T22:15:33.233Z,13.79
2023-05-14T22:18:03.381Z,13.80
2023-05-14T22:20:31.600Z,13.80
2023-05-14T22:22:59.687Z,13.81
2023-05-14T22:25:27.947Z,13.80
2023-05-14T22:27:56.308Z,13.80
2023-05-14T22:30:24.556Z,13.80
2023-05-14T22:32:53.272Z,13.80
2023-05-14T22:35:21.446Z,13.79
2023-05-14T22:37:49.627Z,13.78
2023-05-14T22:40:17.749Z,13.76
2023-05-14T22:42:45.908Z,13.75
2023-05-14T22:45:14.197Z,13.74
2023-05-14T22:47:42.358Z,13.71
2023-05-14T22:50:11.752Z,13.70
2023-05-14T22:52:40.787Z,13.68
2023-05-14T22:55:09.431Z,13.65
2023-05-14T22:57:38.107Z,13.62
2023-05-14T23:00:08.021Z,13.60
2023-05-14T23:02:36.285Z,13.58
2023-05-14T23:05:05.299Z,13.56
2023-05-14T23:07:33.575Z,13.54
2023-05-14T23:10:02.043Z,13.51
2023-05-14T23:12:30.337Z,13.49
2023-05-14T23:14:59.311Z,13.46
2023-05-14T23:17:27.731Z,13.44
2023-05-14T23:19:56.103Z,13.41
2023-05-14T23:22:24.211Z,13.38
2023-05-14T23:24:52.619Z,13.35
2023-05-14T23:27:20.991Z,13.32
2023-05-14T23:29:49.083Z,13.29
2023-05-14T23:32:17.274Z,13.26
2023-05-14T23:34:45.392Z,13.23
2023-05-14T23:37:13.722Z,13.19
2023-05-14T23:39:41.815Z,13.15
2023-05-14T23:42:10.043Z,13.12
2023-05-14T23:44:38.278Z,13.09
2023-05-14T23:47:08.777Z,13.07
2023-05-14T23:49:37.030Z,13.06
2023-05-14T23:52:05.566Z,13.04
2023-05-14T23:54:33.668Z,13.03
2023-05-14T23:57:03.863Z,13.01
2023-05-14T23:59:32.186Z,12.98
